sensor_id;sensor_type;location;lat;lon;timestamp;temperature;humidity
51825;DHT22;37879;52.986;6.282;2023-05-14T00:01:15;10.90;99.90
51825;DHT22;37879;52.986;6.282;2023-05-14T00:03:40;10.90;99.90
51825;DHT22;37879;52.986;6.282;2023-05-14T00:06:06;10.90;99.90
51825;DHT22;37879;52.986;6.282;2023-05-14T00:08:33;10.90;99.90
51825;DHT22;37879;52.986;6.282;2023-05-14T00:10:59;12.30;99.90
51825;DHT22;37879;52.986;6.282;2023-05-14T00:13:25;10.90;99.90
51825;DHT22;37879;52.986;6.282;2023-05-14T00:15:50;10.90;99.90
51825;DHT22;37879;52.986;6.282;2023-05-14T00:18:16;10.90;99.90
51825;DHT22;37879;52.986;6.282;2023-05-14T00:20:42;10.90;99.90
51825;DHT22;37879;52.986;6.282;2023-05-14T00:23:08;10.90;99.90
51825;DHT22;37879;52.986;6.282;2023-05-14T00:25:33;10.90;99.90
51825;DHT22;37879;52.986;6.282;2023-05-14T00:27:59;10.80;99.90
51825;DHT22;37879;52.986;6.282;2023-05-14T00:30:25;10.90;99.90
51825;DHT22;37879;52.986;6.282;2023-05-14T00:32:50;10.70;99.90
51825;DHT22;37879;52.986;6.282;2023-05-14T00:35:16;10.70;99.90
51825;DHT22;37879;52.986;6.282;2023-05-14T00:37:41;10.70;99.90
51825;DHT22;37879;52.986;6.282;2023-05-14T00:40:07;10.70;99.90
51825;DHT22;37879;52.986;6.282;2023-05-14T00:42:36;11.80;99.90
51825;DHT22;37879;52.986;6.282;2023-05-14T00:45:01;11.80;99.90
51825;DHT22;37879;52.986;6.282;2023-05-14T00:47:27;10.60;99.90
51825;DHT22;37879;52.986;6.282;2023-05-14T00:49:53;10.80;99.90
51825;DHT22;37879;52.986;6.282;2023-05-14T00:52:19;10.70;99.90
51825;DHT22;37879;52.986;6.282;2023-05-14T00:54:45;10.50;99.90
51825;DHT22;37879;52.986;6.282;2023-05-14T00:57:12;11.00;99.90
51825;DHT22;37879;52.986;6.282;2023-05-14T00:59:38;10.50;99.90
51825;DHT22;37879;52.986;6.282;2023-05-14T01:02:06;10.40;99.90
51825;DHT22;37879;52.986;6.282;2023-05-14T01:04:32;10.40;99.90
51825;DHT22;37879;52.986;6.282;2023-05-14T01:09:52;10.40;99.90
51825;DHT22;37879;52.986;6.282;2023-05-14T01:12:46;11.70;99.90
51825;DHT22;37879;52.986;6.282;2023-05-14T01:15:36;10.40;99.90
51825;DHT22;37879;52.986;6.282;2023-05-14T01:18:04;10.40;99.90
51825;DHT22;37879;52.986;6.282;2023-05-14T01:20:31;10.40;99.90
51825;DHT22;37879;52.986;6.282;2023-05-14T01:22:57;10.40;99.90
51825;DHT22;37879;52.986;6.282;2023-05-14T01:25:22;11.70;99.90
51825;DHT22;37879;52.986;6.282;2023-05-14T01:30:47;10.30;99.90
51825;DHT22;37879;52.986;6.282;2023-05-14T01:33:15;10.30;99.90
51825;DHT22;37879;52.986;6.282;2023-05-14T01:35:42;10.30;99.90
51825;DHT22;37879;52.986;6.282;2023-05-14T01:38:10;10.30;99.90
51825;DHT22;37879;52.986;6.282;2023-05-14T01:40:38;10.30;99.90
51825;DHT22;37879;52.986;6.282;2023-05-14T01:43:04;10.30;99.90
51825;DHT22;37879;52.986;6.282;2023-05-14T01:45:30;10.30;99.90
51825;DHT22;37879;52.986;6.282;2023-05-14T01:47:58;10.30;99.90
51825;DHT22;37879;52.986;6.282;2023-05-14T01:50:24;10.80;99.90
51825;DHT22;37879;52.986;6.282;2023-05-14T01:52:50;10.20;99.90
51825;DHT22;37879;52.986;6.282;2023-05-14T01:55:17;10.20;99.90
51825;DHT22;37879;52.986;6.282;2023-05-14T01:57:43;10.20;99.90
51825;DHT22;37879;52.986;6.282;2023-05-14T02:00:09;10.20;99.90
51825;DHT22;37879;52.986;6.282;2023-05-14T02:02:35;10.20;99.90
51825;DHT22;37879;52.986;6.282;2023-05-14T02:05:01;10.20;99.90
51825;DHT22;37879;52.986;6.282;2023-05-14T02:07:26;10.20;99.90
51825;DHT22;37879;52.986;6.282;2023-05-14T02:09:52;10.30;99.90
51825;DHT22;37879;52.986;6.282;2023-05-14T02:12:17;10.20;99.90
51825;DHT22;37879;52.986;6.282;2023-05-14T02:14:43;10.20;99.90
51825;DHT22;37879;52.986;6.282;2023-05-14T02:17:08;10.20;99.90
51825;DHT22;37879;52.986;6.282;2023-05-14T02:19:34;10.10;99.90
51825;DHT22;37879;52.986;6.282;2023-05-14T02:22:00;10.10;99.90
51825;DHT22;37879;52.986;6.282;2023-05-14T02:24:25;11.20;99.90
51825;DHT22;37879;52.986;6.282;2023-05-14T02:26:51;10.10;99.90
51825;DHT22;37879;52.986;6.282;2023-05-14T02:29:17;10.00;99.90
51825;DHT22;37879;52.986;6.282;2023-05-14T02:31:42;10.00;99.90
51825;DHT22;37879;52.986;6.282;2023-05-14T02:34:08;10.00;99.90
51825;DHT22;37879;52.986;6.282;2023-05-14T02:36:34;10.00;99.90
51825;DHT22;37879;52.986;6.282;2023-05-14T02:39:00;10.00;99.90
51825;DHT22;37879;52.986;6.282;2023-05-14T02:41:26;10.00;99.90
51825;DHT22;37879;52.986;6.282;2023-05-14T02:43:52;10.00;99.90
51825;DHT22;37879;52.986;6.282;2023-05-14T02:46:18;11.30;99.90
51825;DHT22;37879;52.986;6.282;2023-05-14T02:48:43;10.10;99.90
51825;DHT22;37879;52.986;6.282;2023-05-14T02:51:09;10.10;99.90
51825;DHT22;37879;52.986;6.282;2023-05-14T02:53:35;10.10;99.90
51825;DHT22;37879;52.986;6.282;2023-05-14T02:56:00;10.10;99.90
51825;DHT22;37879;52.986;6.282;2023-05-14T02:58:26;10.20;99.90
51825;DHT22;37879;52.986;6.282;2023-05-14T03:00:51;10.10;99.90
51825;DHT22;37879;52.986;6.282;2023-05-14T03:03:18;11.00;99.90
51825;DHT22;37879;52.986;6.282;2023-05-14T03:05:44;10.10;99.90
51825;DHT22;37879;52.986;6.282;2023-05-14T03:08:09;10.10;99.90
51825;DHT22;37879;52.986;6.282;2023-05-14T03:10:35;10.30;99.90
51825;DHT22;37879;52.986;6.282;2023-05-14T03:13:01;10.10;99.90
51825;DHT22;37879;52.986;6.282;2023-05-14T03:15:27;11.70;99.90
51825;DHT22;37879;52.986;6.282;2023-05-14T03:17:52;10.20;99.90
51825;DHT22;37879;52.986;6.282;2023-05-14T03:20:18;10.20;99.90
51825;DHT22;37879;52.986;6.282;2023-05-14T03:22:44;10.10;99.90
51825;DHT22;37879;52.986;6.282;2023-05-14T03:25:09;10.10;99.90
51825;DHT22;37879;52.986;6.282;2023-05-14T03:27:35;10.10;99.90
51825;DHT22;37879;52.986;6.282;2023-05-14T03:30:00;11.10;99.90
51825;DHT22;37879;52.986;6.282;2023-05-14T03:32:26;9.70;99.90
51825;DHT22;37879;52.986;6.282;2023-05-14T03:34:52;10.10;99.90
51825;DHT22;37879;52.986;6.282;2023-05-14T03:37:17;10.10;99.90
51825;DHT22;37879;52.986;6.282;2023-05-14T03:39:43;10.10;99.90
51825;DHT22;37879;52.986;6.282;2023-05-14T03:42:09;10.10;99.90
51825;DHT22;37879;52.986;6.282;2023-05-14T03:44:34;10.20;99.90
51825;DHT22;37879;52.986;6.282;2023-05-14T03:47:00;11.20;99.90
51825;DHT22;37879;52.986;6.282;2023-05-14T03:49:26;10.10;99.90
51825;DHT22;37879;52.986;6.282;2023-05-14T03:51:51;10.20;99.90
51825;DHT22;37879;52.986;6.282;2023-05-14T03:54:17;10.10;99.90
51825;DHT22;37879;52.986;6.282;2023-05-14T03:56:42;10.10;99.90
51825;DHT22;37879;52.986;6.282;2023-05-14T03:59:08;10.10;99.90
51825;DHT22;37879;52.986;6.282;2023-05-14T04:01:33;10.10;99.90
51825;DHT22;37879;52.986;6.282;2023-05-14T04:03:59;10.00;99.90
51825;DHT22;37879;52.986;6.282;2023-05-14T04:06:25;10.00;99.90
51825;DHT22;37879;52.986;6.282;2023-05-14T04:08:50;10.00;99.90
51825;DHT22;37879;52.986;6.282;2023-05-14T04:11:16;10.00;99.90
51825;DHT22;37879;52.986;6.282;2023-05-14T04:13:41;10.00;99.90
51825;DHT22;37879;52.986;6.282;2023-05-14T04:16:07;10.00;99.90
51825;DHT22;37879;52.986;6.282;2023-05-14T04:18:32;10.10;99.90
51825;DHT22;37879;52.986;6.282;2023-05-14T04:21:01;10.10;99.90
51825;DHT22;37879;52.986;6.282;2023-05-14T04:23:28;10.10;99.90
51825;DHT22;37879;52.986;6.282;2023-05-14T04:25:53;10.10;99.90
51825;DHT22;37879;52.986;6.282;2023-05-14T04:28:19;10.10;99.90
51825;DHT22;37879;52.986;6.282;2023-05-14T04:30:45;10.10;99.90
51825;DHT22;37879;52.986;6.282;2023-05-14T04:33:10;10.10;99.90
51825;DHT22;37879;52.986;6.282;2023-05-14T04:35:36;10.20;99.90
51825;DHT22;37879;52.986;6.282;2023-05-14T04:38:02;10.20;99.90
51825;DHT22;37879;52.986;6.282;2023-05-14T04:40:28;10.20;99.90
51825;DHT22;37879;52.986;6.282;2023-05-14T04:42:55;10.20;99.90
51825;DHT22;37879;52.986;6.282;2023-05-14T04:45:21;10.30;99.90
51825;DHT22;37879;52.986;6.282;2023-05-14T04:47:46;11.40;99.90
51825;DHT22;37879;52.986;6.282;2023-05-14T04:50:12;10.40;99.90
51825;DHT22;37879;52.986;6.282;2023-05-14T04:52:38;10.40;99.90
51825;DHT22;37879;52.986;6.282;2023-05-14T04:55:04;10.40;99.90
51825;DHT22;37879;52.986;6.282;2023-05-14T04:57:30;10.50;99.90
51825;DHT22;37879;52.986;6.282;2023-05-14T04:59:56;10.60;99.90
51825;DHT22;37879;52.986;6.282;2023-05-14T05:02:21;10.70;99.90
51825;DHT22;37879;52.986;6.282;2023-05-14T05:04:47;10.80;99.90
51825;DHT22;37879;52.986;6.282;2023-05-14T05:07:12;10.90;99.90
51825;DHT22;37879;52.986;6.282;2023-05-14T05:09:39;12.20;99.90
51825;DHT22;37879;52.986;6.282;2023-05-14T05:12:05;12.40;99.90
51825;DHT22;37879;52.986;6.282;2023-05-14T05:14:31;11.20;99.90
51825;DHT22;37879;52.986;6.282;2023-05-14T05:16:56;11.20;99.90
51825;DHT22;37879;52.986;6.282;2023-05-14T05:19:22;11.30;99.90
51825;DHT22;37879;52.986;6.282;2023-05-14T05:21:47;12.70;99.90
51825;DHT22;37879;52.986;6.282;2023-05-14T05:24:13;12.30;99.90
51825;DHT22;37879;52.986;6.282;2023-05-14T05:26:39;11.50;99.90
51825;DHT22;37879;52.986;6.282;2023-05-14T05:29:06;12.10;99.90
51825;DHT22;37879;52.986;6.282;2023-05-14T05:31:32;11.70;99.90
51825;DHT22;37879;52.986;6.282;2023-05-14T05:33:58;11.80;99.90
51825;DHT22;37879;52.986;6.282;2023-05-14T05:36:25;11.90;99.90
51825;DHT22;37879;52.986;6.282;2023-05-14T05:38:50;11.90;99.90
51825;DHT22;37879;52.986;6.282;2023-05-14T05:41:16;13.20;99.90
51825;DHT22;37879;52.986;6.282;2023-05-14T05:43:41;12.00;99.90
51825;DHT22;37879;52.986;6.282;2023-05-14T05:46:07;11.90;99.90
51825;DHT22;37879;52.986;6.282;2023-05-14T05:48:33;11.90;99.90
51825;DHT22;37879;52.986;6.282;2023-05-14T05:50:59;11.80;99.90
51825;DHT22;37879;52.986;6.282;2023-05-14T05:53:24;11.80;99.90
51825;DHT22;37879;52.986;6.282;2023-05-14T05:55:50;12.20;99.90
51825;DHT22;37879;52.986;6.282;2023-05-14T05:58:17;12.60;99.90
51825;DHT22;37879;52.986;6.282;2023-05-14T06:00:43;11.70;99.90
51825;DHT22;37879;52.986;6.282;2023-05-14T06:03:10;11.70;99.90
51825;DHT22;37879;52.986;6.282;2023-05-14T06:05:35;11.70;99.90
51825;DHT22;37879;52.986;6.282;2023-05-14T06:08:01;12.70;99.90
51825;DHT22;37879;52.986;6.282;2023-05-14T06:10:27;12.20;99.90
51825;DHT22;37879;52.986;6.282;2023-05-14T06:12:52;11.80;99.90
51825;DHT22;37879;52.986;6.282;2023-05-14T06:15:18;11.90;99.90
51825;DHT22;37879;52.986;6.282;2023-05-14T06:17:44;11.90;99.90
51825;DHT22;37879;52.986;6.282;2023-05-14T06:20:10;12.00;99.90
51825;DHT22;37879;52.986;6.282;2023-05-14T06:22:36;12.00;99.90
51825;DHT22;37879;52.986;6.282;2023-05-14T06:25:03;12.20;99.90
51825;DHT22;37879;52.986;6.282;2023-05-14T06:27:28;12.10;99.90
51825;DHT22;37879;52.986;6.282;2023-05-14T06:29:54;12.20;99.90
51825;DHT22;37879;52.986;6.282;2023-05-14T06:32:20;12.30;99.90
51825;DHT22;37879;52.986;6.282;2023-05-14T06:34:45;12.50;99.90
51825;DHT22;37879;52.986;6.282;2023-05-14T06:37:11;12.60;99.90
51825;DHT22;37879;52.986;6.282;2023-05-14T06:39:37;12.80;99.90
51825;DHT22;37879;52.986;6.282;2023-05-14T06:42:03;12.90;99.90
51825;DHT22;37879;52.986;6.282;2023-05-14T06:44:29;13.00;99.90
51825;DHT22;37879;52.986;6.282;2023-05-14T06:46:54;13.20;99.90
51825;DHT22;37879;52.986;6.282;2023-05-14T06:49:20;13.30;99.90
51825;DHT22;37879;52.986;6.282;2023-05-14T06:51:46;13.40;99.90
51825;DHT22;37879;52.986;6.282;2023-05-14T06:54:11;13.50;99.90
51825;DHT22;37879;52.986;6.282;2023-05-14T06:56:37;13.60;99.90
51825;DHT22;37879;52.986;6.282;2023-05-14T06:59:03;13.60;99.90
51825;DHT22;37879;52.986;6.282;2023-05-14T07:01:28;13.60;99.90
51825;DHT22;37879;52.986;6.282;2023-05-14T07:03:55;14.00;99.90
51825;DHT22;37879;52.986;6.282;2023-05-14T07:06:21;13.60;99.90
51825;DHT22;37879;52.986;6.282;2023-05-14T07:08:47;13.60;99.90
51825;DHT22;37879;52.986;6.282;2023-05-14T07:11:12;13.70;99.90
51825;DHT22;37879;52.986;6.282;2023-05-14T07:13:38;13.60;99.90
51825;DHT22;37879;52.986;6.282;2023-05-14T07:16:05;13.80;99.90
51825;DHT22;37879;52.986;6.282;2023-05-14T07:18:31;13.60;99.90
51825;DHT22;37879;52.986;6.282;2023-05-14T07:20:57;13.70;99.90
51825;DHT22;37879;52.986;6.282;2023-05-14T07:23:22;13.70;99.90
51825;DHT22;37879;52.986;6.282;2023-05-14T07:25:48;13.80;99.90
51825;DHT22;37879;52.986;6.282;2023-05-14T07:28:14;13.80;99.90
51825;DHT22;37879;52.986;6.282;2023-05-14T07:30:39;13.90;99.90
51825;DHT22;37879;52.986;6.282;2023-05-14T07:33:05;13.90;99.90
51825;DHT22;37879;52.986;6.282;2023-05-14T07:35:30;14.10;99.90
51825;DHT22;37879;52.986;6.282;2023-05-14T07:37:56;14.10;99.90
51825;DHT22;37879;52.986;6.282;2023-05-14T07:40:22;14.20;99.90
51825;DHT22;37879;52.986;6.282;2023-05-14T07:42:49;14.30;99.90
51825;DHT22;37879;52.986;6.282;2023-05-14T07:45:15;14.20;99.90
51825;DHT22;37879;52.986;6.282;2023-05-14T07:47:40;14.30;99.90
51825;DHT22;37879;52.986;6.282;2023-05-14T07:50:07;14.90;99.90
51825;DHT22;37879;52.986;6.282;2023-05-14T07:52:32;14.40;99.90
51825;DHT22;37879;52.986;6.282;2023-05-14T07:54:58;14.40;99.90
51825;DHT22;37879;52.986;6.282;2023-05-14T07:57:25;14.80;99.90
51825;DHT22;37879;52.986;6.282;2023-05-14T07:59:51;15.10;99.90
51825;DHT22;37879;52.986;6.282;2023-05-14T08:02:16;14.70;99.90
51825;DHT22;37879;52.986;6.282;2023-05-14T08:04:42;14.80;99.90
51825;DHT22;37879;52.986;6.282;2023-05-14T08:07:08;14.90;99.90
51825;DHT22;37879;52.986;6.282;2023-05-14T08:09:33;15.10;99.90
51825;DHT22;37879;52.986;6.282;2023-05-14T08:11:59;15.20;99.90
51825;DHT22;37879;52.986;6.282;2023-05-14T08:14:25;14.70;99.90
51825;DHT22;37879;52.986;6.282;2023-05-14T08:16:51;15.40;99.90
51825;DHT22;37879;52.986;6.282;2023-05-14T08:19:17;15.90;99.90
51825;DHT22;37879;52.986;6.282;2023-05-14T08:21:42;15.50;99.90
51825;DHT22;37879;52.986;6.282;2023-05-14T08:24:08;15.60;99.90
51825;DHT22;37879;52.986;6.282;2023-05-14T08:26:34;15.60;99.90
51825;DHT22;37879;52.986;6.282;2023-05-14T08:29:00;15.80;99.90
51825;DHT22;37879;52.986;6.282;2023-05-14T08:31:25;15.90;99.90
51825;DHT22;37879;52.986;6.282;2023-05-14T08:33:51;16.00;99.90
51825;DHT22;37879;52.986;6.282;2023-05-14T08:36:16;16.10;99.90
51825;DHT22;37879;52.986;6.282;2023-05-14T08:38:42;16.10;99.90
51825;DHT22;37879;52.986;6.282;2023-05-14T08:41:09;15.40;99.90
51825;DHT22;37879;52.986;6.282;2023-05-14T08:46:29;16.50;99.90
51825;DHT22;37879;52.986;6.282;2023-05-14T08:51:38;16.50;99.90
51825;DHT22;37879;52.986;6.282;2023-05-14T08:54:05;16.60;99.90
51825;DHT22;37879;52.986;6.282;2023-05-14T08:56:34;16.80;99.90
51825;DHT22;37879;52.986;6.282;2023-05-14T08:59:01;17.00;99.90
51825;DHT22;37879;52.986;6.282;2023-05-14T09:01:27;17.10;99.90
51825;DHT22;37879;52.986;6.282;2023-05-14T09:03:54;17.20;99.90
51825;DHT22;37879;52.986;6.282;2023-05-14T09:06:20;17.10;99.90
51825;DHT22;37879;52.986;6.282;2023-05-14T09:08:46;17.10;99.90
51825;DHT22;37879;52.986;6.282;2023-05-14T09:11:12;17.50;99.90
51825;DHT22;37879;52.986;6.282;2023-05-14T09:13:38;17.10;99.90
51825;DHT22;37879;52.986;6.282;2023-05-14T09:16:04;17.00;99.90
51825;DHT22;37879;52.986;6.282;2023-05-14T09:18:30;17.00;99.90
51825;DHT22;37879;52.986;6.282;2023-05-14T09:20:56;17.00;99.90
51825;DHT22;37879;52.986;6.282;2023-05-14T09:23:25;17.20;99.90
51825;DHT22;37879;52.986;6.282;2023-05-14T09:25:50;17.10;99.90
51825;DHT22;37879;52.986;6.282;2023-05-14T09:28:16;17.10;99.90
51825;DHT22;37879;52.986;6.282;2023-05-14T09:30:49;17.00;99.90
51825;DHT22;37879;52.986;6.282;2023-05-14T09:33:26;16.90;99.90
51825;DHT22;37879;52.986;6.282;2023-05-14T09:35:59;16.90;99.90
51825;DHT22;37879;52.986;6.282;2023-05-14T09:38:31;17.80;99.90
51825;DHT22;37879;52.986;6.282;2023-05-14T09:40:58;17.10;99.90
51825;DHT22;37879;52.986;6.282;2023-05-14T09:43:24;17.10;99.90
51825;DHT22;37879;52.986;6.282;2023-05-14T09:45:51;17.20;99.90
51825;DHT22;37879;52.986;6.282;2023-05-14T09:48:16;17.30;99.90
51825;DHT22;37879;52.986;6.282;2023-05-14T09:50:43;17.40;99.90
51825;DHT22;37879;52.986;6.282;2023-05-14T09:53:09;17.40;99.90
51825;DHT22;37879;52.986;6.282;2023-05-14T09:55:38;17.50;99.90
51825;DHT22;37879;52.986;6.282;2023-05-14T09:58:04;17.50;99.90
51825;DHT22;37879;52.986;6.282;2023-05-14T10:00:34;17.50;99.90
51825;DHT22;37879;52.986;6.282;2023-05-14T10:03:05;17.60;99.90
51825;DHT22;37879;52.986;6.282;2023-05-14T10:05:36;17.90;99.90
51825;DHT22;37879;52.986;6.282;2023-05-14T10:08:11;17.80;99.90
51825;DHT22;37879;52.986;6.282;2023-05-14T10:10:38;17.80;99.90
51825;DHT22;37879;52.986;6.282;2023-05-14T10:13:08;17.90;99.90
51825;DHT22;37879;52.986;6.282;2023-05-14T10:15:42;18.30;99.90
51825;DHT22;37879;52.986;6.282;2023-05-14T10:18:10;18.10;99.90
51825;DHT22;37879;52.986;6.282;2023-05-14T10:20:37;18.20;99.90
51825;DHT22;37879;52.986;6.282;2023-05-14T10:23:05;18.30;99.90
51825;DHT22;37879;52.986;6.282;2023-05-14T10:25:32;18.40;99.90
51825;DHT22;37879;52.986;6.282;2023-05-14T10:27:59;18.50;99.90
51825;DHT22;37879;52.986;6.282;2023-05-14T10:30:25;18.70;99.90
51825;DHT22;37879;52.986;6.282;2023-05-14T10:33:11;18.50;99.90
51825;DHT22;37879;52.986;6.282;2023-05-14T10:38:42;18.50;99.90
51825;DHT22;37879;52.986;6.282;2023-05-14T10:41:13;18.50;99.90
51825;DHT22;37879;52.986;6.282;2023-05-14T10:43:42;18.60;99.90
51825;DHT22;37879;52.986;6.282;2023-05-14T10:46:10;18.60;99.90
51825;DHT22;37879;52.986;6.282;2023-05-14T10:48:37;18.70;99.90
51825;DHT22;37879;52.986;6.282;2023-05-14T10:51:06;18.80;99.90
51825;DHT22;37879;52.986;6.282;2023-05-14T10:53:34;18.90;99.90
51825;DHT22;37879;52.986;6.282;2023-05-14T10:56:11;19.00;99.90
51825;DHT22;37879;52.986;6.282;2023-05-14T10:58:41;19.10;99.90
51825;DHT22;37879;52.986;6.282;2023-05-14T11:01:08;19.20;99.90
51825;DHT22;37879;52.986;6.282;2023-05-14T11:03:39;19.30;99.90
51825;DHT22;37879;52.986;6.282;2023-05-14T11:06:06;19.70;99.90
51825;DHT22;37879;52.986;6.282;2023-05-14T11:08:32;19.40;99.90
51825;DHT22;37879;52.986;6.282;2023-05-14T11:10:58;19.40;99.90
51825;DHT22;37879;52.986;6.282;2023-05-14T11:13:28;19.40;99.90
51825;DHT22;37879;52.986;6.282;2023-05-14T11:15:54;19.50;99.90
51825;DHT22;37879;52.986;6.282;2023-05-14T11:18:33;19.60;99.90
51825;DHT22;37879;52.986;6.282;2023-05-14T11:21:02;19.60;99.90
51825;DHT22;37879;52.986;6.282;2023-05-14T11:23:28;19.60;99.90
51825;DHT22;37879;52.986;6.282;2023-05-14T11:25:55;19.60;99.90
51825;DHT22;37879;52.986;6.282;2023-05-14T11:28:22;19.60;99.90
51825;DHT22;37879;52.986;6.282;2023-05-14T11:30:51;19.70;99.90
51825;DHT22;37879;52.986;6.282;2023-05-14T11:33:18;19.70;99.90
51825;DHT22;37879;52.986;6.282;2023-05-14T11:35:47;19.60;99.90
51825;DHT22;37879;52.986;6.282;2023-05-14T11:38:17;19.70;99.90
51825;DHT22;37879;52.986;6.282;2023-05-14T11:40:51;19.80;99.90
51825;DHT22;37879;52.986;6.282;2023-05-14T11:43:17;20.00;99.90
51825;DHT22;37879;52.986;6.282;2023-05-14T11:45:51;20.00;99.90
51825;DHT22;37879;52.986;6.282;2023-05-14T11:48:18;20.00;99.90
51825;DHT22;37879;52.986;6.282;2023-05-14T11:50:46;20.10;99.90
51825;DHT22;37879;52.986;6.282;2023-05-14T11:53:24;20.10;99.90
51825;DHT22;37879;52.986;6.282;2023-05-14T11:55:52;20.30;99.90
51825;DHT22;37879;52.986;6.282;2023-05-14T11:58:31;20.40;99.90
51825;DHT22;37879;52.986;6.282;2023-05-14T12:00:57;20.40;99.90
51825;DHT22;37879;52.986;6.282;2023-05-14T12:03:23;20.50;99.90
51825;DHT22;37879;52.986;6.282;2023-05-14T12:05:58;20.60;99.90
51825;DHT22;37879;52.986;6.282;2023-05-14T12:08:28;20.80;99.90
51825;DHT22;37879;52.986;6.282;2023-05-14T12:10:56;20.80;99.90
51825;DHT22;37879;52.986;6.282;2023-05-14T12:13:30;20.90;99.90
51825;DHT22;37879;52.986;6.282;2023-05-14T12:15:58;21.00;99.90
51825;DHT22;37879;52.986;6.282;2023-05-14T12:18:28;21.10;99.90
51825;DHT22;37879;52.986;6.282;2023-05-14T12:20:55;21.30;99.90
51825;DHT22;37879;52.986;6.282;2023-05-14T12:23:25;21.40;99.90
51825;DHT22;37879;52.986;6.282;2023-05-14T12:25:51;21.60;99.90
51825;DHT22;37879;52.986;6.282;2023-05-14T12:28:17;21.60;99.90
51825;DHT22;37879;52.986;6.282;2023-05-14T12:30:45;21.50;99.90
51825;DHT22;37879;52.986;6.282;2023-05-14T12:33:10;21.50;99.90
51825;DHT22;37879;52.986;6.282;2023-05-14T12:35:36;21.40;99.90
51825;DHT22;37879;52.986;6.282;2023-05-14T12:38:02;21.50;99.90
51825;DHT22;37879;52.986;6.282;2023-05-14T12:40:28;21.40;99.90
51825;DHT22;37879;52.986;6.282;2023-05-14T12:42:54;21.40;99.90
51825;DHT22;37879;52.986;6.282;2023-05-14T12:45:19;21.40;99.90
51825;DHT22;37879;52.986;6.282;2023-05-14T12:47:45;21.40;99.90
51825;DHT22;37879;52.986;6.282;2023-05-14T12:50:11;21.40;99.90
51825;DHT22;37879;52.986;6.282;2023-05-14T12:52:36;21.40;99.90
51825;DHT22;37879;52.986;6.282;2023-05-14T12:55:02;21.40;99.90
51825;DHT22;37879;52.986;6.282;2023-05-14T12:57:28;21.30;99.90
51825;DHT22;37879;52.986;6.282;2023-05-14T12:59:55;21.30;99.90
51825;DHT22;37879;52.986;6.282;2023-05-14T13:02:20;21.30;99.90
51825;DHT22;37879;52.986;6.282;2023-05-14T13:04:46;21.30;98.70
51825;DHT22;37879;52.986;6.282;2023-05-14T13:07:12;21.40;99.90
51825;DHT22;37879;52.986;6.282;2023-05-14T13:09:38;21.50;99.90
51825;DHT22;37879;52.986;6.282;2023-05-14T13:12:04;21.50;99.90
51825;DHT22;37879;52.986;6.282;2023-05-14T13:14:30;21.60;99.90
51825;DHT22;37879;52.986;6.282;2023-05-14T13:16:56;21.60;99.10
51825;DHT22;37879;52.986;6.282;2023-05-14T13:19:21;21.60;99.00
51825;DHT22;37879;52.986;6.282;2023-05-14T13:21:47;21.60;98.60
51825;DHT22;37879;52.986;6.282;2023-05-14T13:24:12;21.50;99.50
51825;DHT22;37879;52.986;6.282;2023-05-14T13:26:38;21.60;99.00
51825;DHT22;37879;52.986;6.282;2023-05-14T13:29:04;21.60;98.60
51825;DHT22;37879;52.986;6.282;2023-05-14T13:31:29;21.60;99.50
51825;DHT22;37879;52.986;6.282;2023-05-14T13:33:55;21.70;99.00
51825;DHT22;37879;52.986;6.282;2023-05-14T13:36:22;21.80;99.90
51825;DHT22;37879;52.986;6.282;2023-05-14T13:38:48;21.80;99.90
51825;DHT22;37879;52.986;6.282;2023-05-14T13:41:14;21.90;99.40
51825;DHT22;37879;52.986;6.282;2023-05-14T13:43:39;21.90;98.20
51825;DHT22;37879;52.986;6.282;2023-05-14T13:46:05;21.90;98.60
51825;DHT22;37879;52.986;6.282;2023-05-14T13:48:31;22.00;99.90
51825;DHT22;37879;52.986;6.282;2023-05-14T13:50:57;22.20;99.60
51825;DHT22;37879;52.986;6.282;2023-05-14T13:53:24;22.30;99.30
51825;DHT22;37879;52.986;6.282;2023-05-14T13:55:50;22.40;97.60
51825;DHT22;37879;52.986;6.282;2023-05-14T13:58:21;22.40;98.30
51825;DHT22;37879;52.986;6.282;2023-05-14T14:00:48;22.20;98.00
51825;DHT22;37879;52.986;6.282;2023-05-14T14:03:14;22.20;97.00
51825;DHT22;37879;52.986;6.282;2023-05-14T14:05:39;22.20;96.90
51825;DHT22;37879;52.986;6.282;2023-05-14T14:08:05;22.20;97.30
51825;DHT22;37879;52.986;6.282;2023-05-14T14:10:31;22.10;97.60
51825;DHT22;37879;52.986;6.282;2023-05-14T14:12:56;22.10;96.30
51825;DHT22;37879;52.986;6.282;2023-05-14T14:15:22;22.10;95.80
51825;DHT22;37879;52.986;6.282;2023-05-14T14:17:48;21.90;94.10
51825;DHT22;37879;52.986;6.282;2023-05-14T14:20:13;21.90;95.80
51825;DHT22;37879;52.986;6.282;2023-05-14T14:22:40;22.00;95.80
51825;DHT22;37879;52.986;6.282;2023-05-14T14:25:07;22.10;95.80
51825;DHT22;37879;52.986;6.282;2023-05-14T14:27:33;22.10;96.80
51825;DHT22;37879;52.986;6.282;2023-05-14T14:30:07;22.10;97.20
51825;DHT22;37879;52.986;6.282;2023-05-14T14:32:34;22.10;97.20
51825;DHT22;37879;52.986;6.282;2023-05-14T14:34:59;22.10;98.10
51825;DHT22;37879;52.986;6.282;2023-05-14T14:37:25;22.20;98.90
51825;DHT22;37879;52.986;6.282;2023-05-14T14:39:51;22.20;99.90
51825;DHT22;37879;52.986;6.282;2023-05-14T14:42:16;22.10;99.90
51825;DHT22;37879;52.986;6.282;2023-05-14T14:44:42;22.10;99.90
51825;DHT22;37879;52.986;6.282;2023-05-14T14:47:08;22.00;99.10
51825;DHT22;37879;52.986;6.282;2023-05-14T14:49:33;21.90;98.80
51825;DHT22;37879;52.986;6.282;2023-05-14T14:51:59;22.00;98.90
51825;DHT22;37879;52.986;6.282;2023-05-14T14:54:24;21.90;99.30
51825;DHT22;37879;52.986;6.282;2023-05-14T14:56:50;21.90;99.30
51825;DHT22;37879;52.986;6.282;2023-05-14T14:59:17;21.90;99.40
51825;DHT22;37879;52.986;6.282;2023-05-14T15:01:43;21.80;98.70
51825;DHT22;37879;52.986;6.282;2023-05-14T15:04:08;21.80;99.20
51825;DHT22;37879;52.986;6.282;2023-05-14T15:06:34;21.80;99.50
51825;DHT22;37879;52.986;6.282;2023-05-14T15:09:00;21.90;99.50
51825;DHT22;37879;52.986;6.282;2023-05-14T15:11:25;22.00;99.40
51825;DHT22;37879;52.986;6.282;2023-05-14T15:13:51;22.00;98.90
51825;DHT22;37879;52.986;6.282;2023-05-14T15:16:17;21.90;99.40
51825;DHT22;37879;52.986;6.282;2023-05-14T15:18:42;21.90;99.90
51825;DHT22;37879;52.986;6.282;2023-05-14T15:21:08;21.90;99.90
51825;DHT22;37879;52.986;6.282;2023-05-14T15:23:33;22.00;99.90
51825;DHT22;37879;52.986;6.282;2023-05-14T15:25:59;21.90;99.90
51825;DHT22;37879;52.986;6.282;2023-05-14T15:28:25;21.90;99.80
51825;DHT22;37879;52.986;6.282;2023-05-14T15:30:50;21.90;99.90
51825;DHT22;37879;52.986;6.282;2023-05-14T15:33:16;21.80;99.90
51825;DHT22;37879;52.986;6.282;2023-05-14T15:35:44;21.70;99.90
51825;DHT22;37879;52.986;6.282;2023-05-14T15:38:09;21.60;99.90
51825;DHT22;37879;52.986;6.282;2023-05-14T15:40:35;21.40;99.90